sensor_id;sensor_type;location;lat;lon;timestamp;P1;durP1;ratioP1;P2;durP2;ratioP2
38465;SDS011;24244;51.950;5.902;2023-04-28T00:01:42;5.10;;;1.83;;
38465;SDS011;24244;51.950;5.902;2023-04-28T00:04:11;3.42;;;1.95;;
38465;SDS011;24244;51.950;5.902;2023-04-28T00:06:38;4.85;;;2.25;;
38465;SDS011;24244;51.950;5.902;2023-04-28T00:09:06;4.35;;;2.00;;
38465;SDS011;24244;51.950;5.902;2023-04-28T00:11:36;4.53;;;2.10;;
38465;SDS011;24244;51.950;5.902;2023-04-28T00:14:03;3.72;;;1.77;;
38465;SDS011;24244;51.950;5.902;2023-04-28T00:16:30;4.18;;;1.80;;
38465;SDS011;24244;51.950;5.902;2023-04-28T00:18:57;3.97;;;1.88;;
38465;SDS011;24244;51.950;5.902;2023-04-28T00:21:25;3.75;;;1.50;;
38465;SDS011;24244;51.950;5.902;2023-04-28T00:23:53;4.05;;;1.52;;
38465;SDS011;24244;51.950;5.902;2023-04-28T00:26:20;3.85;;;2.13;;
38465;SDS011;24244;51.950;5.902;2023-04-28T00:28:47;4.38;;;1.90;;
38465;SDS011;24244;51.950;5.902;2023-04-28T00:31:14;3.70;;;1.67;;
38465;SDS011;24244;51.950;5.902;2023-04-28T00:33:41;3.70;;;1.65;;
38465;SDS011;24244;51.950;5.902;2023-04-28T00:36:09;4.03;;;1.73;;
38465;SDS011;24244;51.950;5.902;2023-04-28T00:38:38;3.15;;;1.50;;
38465;SDS011;24244;51.950;5.902;2023-04-28T00:41:04;3.08;;;1.58;;
38465;SDS011;24244;51.950;5.902;2023-04-28T00:43:42;3.50;;;1.67;;
38465;SDS011;24244;51.950;5.902;2023-04-28T00:46:10;3.35;;;1.73;;
38465;SDS011;24244;51.950;5.902;2023-04-28T00:48:39;4.88;;;1.80;;
38465;SDS011;24244;51.950;5.902;2023-04-28T00:51:06;4.25;;;1.75;;
38465;SDS011;24244;51.950;5.902;2023-04-28T00:53:33;4.05;;;1.55;;
38465;SDS011;24244;51.950;5.902;2023-04-28T00:56:03;3.58;;;1.70;;
38465;SDS011;24244;51.950;5.902;2023-04-28T00:58:31;2.83;;;1.50;;
38465;SDS011;24244;51.950;5.902;2023-04-28T01:01:02;4.85;;;1.50;;
38465;SDS011;24244;51.950;5.902;2023-04-28T01:03:30;2.80;;;1.63;;
38465;SDS011;24244;51.950;5.902;2023-04-28T01:06:00;2.90;;;1.40;;
38465;SDS011;24244;51.950;5.902;2023-04-28T01:08:27;3.85;;;1.73;;
38465;SDS011;24244;51.950;5.902;2023-04-28T01:10:55;2.83;;;1.50;;
38465;SDS011;24244;51.950;5.902;2023-04-28T01:13:25;3.55;;;1.40;;
38465;SDS011;24244;51.950;5.902;2023-04-28T01:15:51;2.75;;;1.50;;
38465;SDS011;24244;51.950;5.902;2023-04-28T01:18:19;3.03;;;1.50;;
38465;SDS011;24244;51.950;5.902;2023-04-28T01:20:49;3.53;;;1.70;;
38465;SDS011;24244;51.950;5.902;2023-04-28T01:23:16;3.40;;;1.70;;
38465;SDS011;24244;51.950;5.902;2023-04-28T01:25:45;2.50;;;1.30;;
38465;SDS011;24244;51.950;5.902;2023-04-28T01:28:11;2.60;;;1.52;;
38465;SDS011;24244;51.950;5.902;2023-04-28T01:30:38;2.40;;;1.13;;
38465;SDS011;24244;51.950;5.902;2023-04-28T01:33:05;2.63;;;1.50;;
38465;SDS011;24244;51.950;5.902;2023-04-28T01:35:32;3.35;;;1.92;;
38465;SDS011;24244;51.950;5.902;2023-04-28T01:37:59;4.55;;;1.70;;
38465;SDS011;24244;51.950;5.902;2023-04-28T01:40:26;4.75;;;1.88;;
38465;SDS011;24244;51.950;5.902;2023-04-28T01:42:55;4.85;;;1.90;;
38465;SDS011;24244;51.950;5.902;2023-04-28T01:45:22;3.00;;;1.70;;
38465;SDS011;24244;51.950;5.902;2023-04-28T01:47:48;3.50;;;1.90;;
38465;SDS011;24244;51.950;5.902;2023-04-28T01:50:16;5.68;;;2.28;;
38465;SDS011;24244;51.950;5.902;2023-04-28T01:52:43;2.83;;;1.80;;
38465;SDS011;24244;51.950;5.902;2023-04-28T01:55:12;4.65;;;1.75;;
38465;SDS011;24244;51.950;5.902;2023-04-28T01:57:39;3.10;;;1.55;;
38465;SDS011;24244;51.950;5.902;2023-04-28T02:00:07;3.53;;;2.00;;
38465;SDS011;24244;51.950;5.902;2023-04-28T02:02:41;4.03;;;1.85;;
38465;SDS011;24244;51.950;5.902;2023-04-28T02:05:08;6.22;;;2.95;;
38465;SDS011;24244;51.950;5.902;2023-04-28T02:07:35;3.35;;;2.00;;
38465;SDS011;24244;51.950;5.902;2023-04-28T02:10:03;3.40;;;1.98;;
38465;SDS011;24244;51.950;5.902;2023-04-28T02:12:31;3.70;;;1.40;;
38465;SDS011;24244;51.950;5.902;2023-04-28T02:14:59;3.22;;;1.60;;
38465;SDS011;24244;51.950;5.902;2023-04-28T02:17:29;3.33;;;1.60;;
38465;SDS011;24244;51.950;5.902;2023-04-28T02:19:56;5.38;;;1.83;;
38465;SDS011;24244;51.950;5.902;2023-04-28T02:22:23;4.38;;;1.90;;
38465;SDS011;24244;51.950;5.902;2023-04-28T02:24:50;3.78;;;1.92;;
38465;SDS011;24244;51.950;5.902;2023-04-28T02:27:20;5.28;;;1.60;;
38465;SDS011;24244;51.950;5.902;2023-04-28T02:29:48;4.13;;;2.20;;
38465;SDS011;24244;51.950;5.902;2023-04-28T02:32:16;3.38;;;1.88;;
38465;SDS011;24244;51.950;5.902;2023-04-28T02:34:46;2.92;;;1.58;;
38465;SDS011;24244;51.950;5.902;2023-04-28T02:37:13;3.38;;;1.40;;
38465;SDS011;24244;51.950;5.902;2023-04-28T02:39:39;3.05;;;1.58;;
38465;SDS011;24244;51.950;5.902;2023-04-28T02:42:06;2.80;;;1.50;;
38465;SDS011;24244;51.950;5.902;2023-04-28T02:44:34;3.38;;;1.42;;
38465;SDS011;24244;51.950;5.902;2023-04-28T02:47:01;3.50;;;1.80;;
38465;SDS011;24244;51.950;5.902;2023-04-28T02:49:30;3.45;;;1.83;;
38465;SDS011;24244;51.950;5.902;2023-04-28T02:51:58;2.72;;;1.40;;
38465;SDS011;24244;51.950;5.902;2023-04-28T02:54:25;4.43;;;1.50;;
38465;SDS011;24244;51.950;5.902;2023-04-28T02:56:55;2.85;;;1.48;;
38465;SDS011;24244;51.950;5.902;2023-04-28T02:59:23;3.45;;;1.88;;
38465;SDS011;24244;51.950;5.902;2023-04-28T03:01:54;5.47;;;1.90;;
38465;SDS011;24244;51.950;5.902;2023-04-28T03:04:21;2.85;;;1.42;;
38465;SDS011;24244;51.950;5.902;2023-04-28T03:06:48;3.60;;;1.55;;
38465;SDS011;24244;51.950;5.902;2023-04-28T03:09:17;3.42;;;1.77;;
38465;SDS011;24244;51.950;5.902;2023-04-28T03:11:44;3.55;;;1.83;;
38465;SDS011;24244;51.950;5.902;2023-04-28T03:14:10;2.80;;;1.70;;
38465;SDS011;24244;51.950;5.902;2023-04-28T03:16:37;2.58;;;1.50;;
38465;SDS011;24244;51.950;5.902;2023-04-28T03:19:04;3.25;;;1.60;;
38465;SDS011;24244;51.950;5.902;2023-04-28T03:21:31;2.65;;;1.70;;
38465;SDS011;24244;51.950;5.902;2023-04-28T03:23:58;3.78;;;2.15;;
38465;SDS011;24244;51.950;5.902;2023-04-28T03:26:26;3.85;;;1.60;;
38465;SDS011;24244;51.950;5.902;2023-04-28T03:28:53;3.10;;;2.05;;
38465;SDS011;24244;51.950;5.902;2023-04-28T03:31:20;3.60;;;1.80;;
38465;SDS011;24244;51.950;5.902;2023-04-28T03:33:47;4.00;;;1.70;;
38465;SDS011;24244;51.950;5.902;2023-04-28T03:36:14;3.30;;;2.10;;
38465;SDS011;24244;51.950;5.902;2023-04-28T03:38:41;3.45;;;1.75;;
38465;SDS011;24244;51.950;5.902;2023-04-28T03:41:08;3.10;;;1.52;;
38465;SDS011;24244;51.950;5.902;2023-04-28T03:43:36;4.50;;;1.80;;
38465;SDS011;24244;51.950;5.902;2023-04-28T03:46:03;3.15;;;1.85;;
38465;SDS011;24244;51.950;5.902;2023-04-28T03:48:31;3.65;;;1.92;;
38465;SDS011;24244;51.950;5.902;2023-04-28T03:50:58;3.38;;;1.75;;
38465;SDS011;24244;51.950;5.902;2023-04-28T03:53:25;4.15;;;1.80;;
38465;SDS011;24244;51.950;5.902;2023-04-28T03:55:51;4.45;;;2.10;;
38465;SDS011;24244;51.950;5.902;2023-04-28T03:58:19;4.38;;;1.90;;
38465;SDS011;24244;51.950;5.902;2023-04-28T04:00:48;3.33;;;1.85;;
38465;SDS011;24244;51.950;5.902;2023-04-28T04:03:15;4.25;;;2.00;;
38465;SDS011;24244;51.950;5.902;2023-04-28T04:05:43;3.65;;;1.85;;
38465;SDS011;24244;51.950;5.902;2023-04-28T04:08:10;3.38;;;1.92;;
38465;SDS011;24244;51.950;5.902;2023-04-28T04:10:37;3.83;;;1.90;;
38465;SDS011;24244;51.950;5.902;2023-04-28T04:13:03;4.25;;;1.88;;
38465;SDS011;24244;51.950;5.902;2023-04-28T04:15:30;4.90;;;1.88;;
38465;SDS011;24244;51.950;5.902;2023-04-28T04:17:59;3.35;;;2.10;;
38465;SDS011;24244;51.950;5.902;2023-04-28T04:20:26;3.47;;;1.73;;
38465;SDS011;24244;51.950;5.902;2023-04-28T04:22:52;4.10;;;1.98;;
38465;SDS011;24244;51.950;5.902;2023-04-28T04:25:19;3.88;;;1.85;;
38465;SDS011;24244;51.950;5.902;2023-04-28T04:27:48;5.50;;;2.03;;
38465;SDS011;24244;51.950;5.902;2023-04-28T04:30:15;4.82;;;1.90;;
38465;SDS011;24244;51.950;5.902;2023-04-28T04:32:42;4.82;;;2.33;;
38465;SDS011;24244;51.950;5.902;2023-04-28T04:35:10;3.70;;;2.22;;
38465;SDS011;24244;51.950;5.902;2023-04-28T04:37:37;3.63;;;1.95;;
38465;SDS011;24244;51.950;5.902;2023-04-28T04:40:04;4.00;;;2.20;;
38465;SDS011;24244;51.950;5.902;2023-04-28T04:42:32;3.40;;;1.80;;
38465;SDS011;24244;51.950;5.902;2023-04-28T04:44:59;3.83;;;2.08;;
38465;SDS011;24244;51.950;5.902;2023-04-28T04:47:26;4.63;;;2.30;;
38465;SDS011;24244;51.950;5.902;2023-04-28T04:49:54;5.13;;;2.42;;
38465;SDS011;24244;51.950;5.902;2023-04-28T04:52:23;3.95;;;1.92;;
38465;SDS011;24244;51.950;5.902;2023-04-28T04:54:50;3.58;;;1.90;;
38465;SDS011;24244;51.950;5.902;2023-04-28T04:57:17;4.05;;;2.17;;
38465;SDS011;24244;51.950;5.902;2023-04-28T04:59:44;3.30;;;1.80;;
38465;SDS011;24244;51.950;5.902;2023-04-28T05:02:11;4.50;;;1.50;;
38465;SDS011;24244;51.950;5.902;2023-04-28T05:04:38;7.72;;;2.67;;
38465;SDS011;24244;51.950;5.902;2023-04-28T05:07:05;3.95;;;2.03;;
38465;SDS011;24244;51.950;5.902;2023-04-28T05:09:33;3.90;;;2.42;;
38465;SDS011;24244;51.950;5.902;2023-04-28T05:12:00;4.63;;;2.30;;
38465;SDS011;24244;51.950;5.902;2023-04-28T05:14:27;4.38;;;2.13;;
38465;SDS011;24244;51.950;5.902;2023-04-28T05:16:54;4.25;;;2.08;;
38465;SDS011;24244;51.950;5.902;2023-04-28T05:19:21;5.75;;;2.65;;
38465;SDS011;24244;51.950;5.902;2023-04-28T05:21:47;5.47;;;2.20;;
38465;SDS011;24244;51.950;5.902;2023-04-28T05:24:15;3.67;;;2.00;;
38465;SDS011;24244;51.950;5.902;2023-04-28T05:26:44;4.20;;;2.13;;
38465;SDS011;24244;51.950;5.902;2023-04-28T05:29:11;4.82;;;2.67;;
38465;SDS011;24244;51.950;5.902;2023-04-28T05:31:38;6.00;;;2.38;;
38465;SDS011;24244;51.950;5.902;2023-04-28T05:34:04;4.38;;;2.58;;
38465;SDS011;24244;51.950;5.902;2023-04-28T05:36:31;4.75;;;3.00;;
38465;SDS011;24244;51.950;5.902;2023-04-28T05:38:58;4.45;;;3.00;;
38465;SDS011;24244;51.950;5.902;2023-04-28T05:41:26;4.82;;;2.90;;
38465;SDS011;24244;51.950;5.902;2023-04-28T05:44:01;4.78;;;2.65;;
38465;SDS011;24244;51.950;5.902;2023-04-28T05:46:28;7.10;;;3.22;;
38465;SDS011;24244;51.950;5.902;2023-04-28T05:48:56;4.88;;;3.10;;
38465;SDS011;24244;51.950;5.902;2023-04-28T05:51:23;5.20;;;3.20;;
38465;SDS011;24244;51.950;5.902;2023-04-28T05:53:50;4.82;;;3.13;;
38465;SDS011;24244;51.950;5.902;2023-04-28T05:56:19;5.18;;;3.05;;
38465;SDS011;24244;51.950;5.902;2023-04-28T05:58:46;6.38;;;2.90;;
38465;SDS011;24244;51.950;5.902;2023-04-28T06:01:16;6.38;;;3.10;;
38465;SDS011;24244;51.950;5.902;2023-04-28T06:03:43;5.78;;;3.38;;
38465;SDS011;24244;51.950;5.902;2023-04-28T06:06:11;6.63;;;3.58;;
38465;SDS011;24244;51.950;5.902;2023-04-28T06:08:39;5.20;;;3.20;;
38465;SDS011;24244;51.950;5.902;2023-04-28T06:11:06;5.85;;;3.22;;
38465;SDS011;24244;51.950;5.902;2023-04-28T06:13:33;5.95;;;3.83;;
38465;SDS011;24244;51.950;5.902;2023-04-28T06:16:00;7.53;;;3.75;;
38465;SDS011;24244;51.950;5.902;2023-04-28T06:18:29;5.93;;;3.58;;
38465;SDS011;24244;51.950;5.902;2023-04-28T06:20:59;7.22;;;3.90;;
38465;SDS011;24244;51.950;5.902;2023-04-28T06:23:26;7.30;;;3.90;;
38465;SDS011;24244;51.950;5.902;2023-04-28T06:25:53;7.82;;;4.68;;
38465;SDS011;24244;51.950;5.902;2023-04-28T06:28:20;6.38;;;4.18;;
38465;SDS011;24244;51.950;5.902;2023-04-28T06:30:47;6.53;;;3.63;;
38465;SDS011;24244;51.950;5.902;2023-04-28T06:33:13;8.73;;;5.07;;
38465;SDS011;24244;51.950;5.902;2023-04-28T06:35:42;6.13;;;4.15;;
38465;SDS011;24244;51.950;5.902;2023-04-28T06:38:09;7.00;;;4.70;;
38465;SDS011;24244;51.950;5.902;2023-04-28T06:40:36;8.65;;;5.28;;
38465;SDS011;24244;51.950;5.902;2023-04-28T06:43:05;7.07;;;4.63;;
38465;SDS011;24244;51.950;5.902;2023-04-28T06:45:31;5.90;;;3.78;;
38465;SDS011;24244;51.950;5.902;2023-04-28T06:47:58;6.85;;;3.95;;
38465;SDS011;24244;51.950;5.902;2023-04-28T06:50:25;8.65;;;4.65;;
38465;SDS011;24244;51.950;5.902;2023-04-28T06:52:53;6.40;;;3.95;;
38465;SDS011;24244;51.950;5.902;2023-04-28T06:55:20;6.97;;;4.05;;
38465;SDS011;24244;51.950;5.902;2023-04-28T06:57:47;6.93;;;4.22;;
38465;SDS011;24244;51.950;5.902;2023-04-28T07:00:14;6.60;;;3.88;;
38465;SDS011;24244;51.950;5.902;2023-04-28T07:02:42;7.50;;;3.53;;
38465;SDS011;24244;51.950;5.902;2023-04-28T07:05:09;8.38;;;4.35;;
38465;SDS011;24244;51.950;5.902;2023-04-28T07:07:36;8.65;;;4.80;;
38465;SDS011;24244;51.950;5.902;2023-04-28T07:10:06;7.05;;;4.05;;
38465;SDS011;24244;51.950;5.902;2023-04-28T07:12:33;6.78;;;4.10;;
38465;SDS011;24244;51.950;5.902;2023-04-28T07:15:00;7.25;;;4.43;;
38465;SDS011;24244;51.950;5.902;2023-04-28T07:17:27;6.68;;;3.88;;
38465;SDS011;24244;51.950;5.902;2023-04-28T07:19:54;8.80;;;4.53;;
38465;SDS011;24244;51.950;5.902;2023-04-28T07:22:21;6.65;;;3.80;;
38465;SDS011;24244;51.950;5.902;2023-04-28T07:24:48;8.25;;;4.60;;
38465;SDS011;24244;51.950;5.902;2023-04-28T07:27:16;5.93;;;3.45;;
38465;SDS011;24244;51.950;5.902;2023-04-28T07:29:43;7.40;;;4.30;;
38465;SDS011;24244;51.950;5.902;2023-04-28T07:32:09;7.57;;;4.57;;
38465;SDS011;24244;51.950;5.902;2023-04-28T07:34:36;6.93;;;4.18;;
38465;SDS011;24244;51.950;5.902;2023-04-28T07:37:03;8.85;;;4.63;;
38465;SDS011;24244;51.950;5.902;2023-04-28T07:39:31;6.78;;;3.67;;
38465;SDS011;24244;51.950;5.902;2023-04-28T07:42:00;6.72;;;4.22;;
38465;SDS011;24244;51.950;5.902;2023-04-28T07:44:29;7.63;;;4.18;;
38465;SDS011;24244;51.950;5.902;2023-04-28T07:46:57;8.45;;;4.80;;
38465;SDS011;24244;51.950;5.902;2023-04-28T07:49:25;8.88;;;5.18;;
38465;SDS011;24244;51.950;5.902;2023-04-28T07:51:53;7.40;;;4.88;;
38465;SDS011;24244;51.950;5.902;2023-04-28T07:54:21;7.40;;;4.20;;
38465;SDS011;24244;51.950;5.902;2023-04-28T07:56:48;7.72;;;4.93;;
38465;SDS011;24244;51.950;5.902;2023-04-28T07:59:20;6.60;;;4.10;;
38465;SDS011;24244;51.950;5.902;2023-04-28T08:01:48;7.45;;;4.25;;
38465;SDS011;24244;51.950;5.902;2023-04-28T08:04:15;6.55;;;3.95;;
38465;SDS011;24244;51.950;5.902;2023-04-28T08:06:43;7.43;;;4.55;;
38465;SDS011;24244;51.950;5.902;2023-04-28T08:09:10;6.78;;;3.92;;
38465;SDS011;24244;51.950;5.902;2023-04-28T08:11:37;6.45;;;4.18;;
38465;SDS011;24244;51.950;5.902;2023-04-28T08:14:03;6.30;;;3.92;;
38465;SDS011;24244;51.950;5.902;2023-04-28T08:16:30;7.28;;;4.32;;
38465;SDS011;24244;51.950;5.902;2023-04-28T08:18:59;7.13;;;4.22;;
38465;SDS011;24244;51.950;5.902;2023-04-28T08:21:26;10.20;;;5.18;;
38465;SDS011;24244;51.950;5.902;2023-04-28T08:23:53;7.78;;;4.35;;
38465;SDS011;24244;51.950;5.902;2023-04-28T08:26:20;7.65;;;4.25;;
38465;SDS011;24244;51.950;5.902;2023-04-28T08:28:47;9.20;;;4.90;;
38465;SDS011;24244;51.950;5.902;2023-04-28T08:31:14;7.20;;;4.93;;
38465;SDS011;24244;51.950;5.902;2023-04-28T08:33:40;7.05;;;4.30;;
38465;SDS011;24244;51.950;5.902;2023-04-28T08:36:11;6.80;;;4.00;;
38465;SDS011;24244;51.950;5.902;2023-04-28T08:38:40;8.02;;;4.40;;
38465;SDS011;24244;51.950;5.902;2023-04-28T08:41:08;6.45;;;4.20;;
38465;SDS011;24244;51.950;5.902;2023-04-28T08:43:35;8.07;;;4.68;;
38465;SDS011;24244;51.950;5.902;2023-04-28T08:46:04;8.02;;;4.43;;
38465;SDS011;24244;51.950;5.902;2023-04-28T08:48:38;8.75;;;5.28;;
38465;SDS011;24244;51.950;5.902;2023-04-28T08:51:06;7.90;;;4.70;;
38465;SDS011;24244;51.950;5.902;2023-04-28T08:53:37;7.93;;;4.55;;
38465;SDS011;24244;51.950;5.902;2023-04-28T08:56:25;8.35;;;4.30;;
38465;SDS011;24244;51.950;5.902;2023-04-28T08:58:53;6.72;;;4.18;;
38465;SDS011;24244;51.950;5.902;2023-04-28T09:01:21;6.05;;;3.88;;
38465;SDS011;24244;51.950;5.902;2023-04-28T09:03:48;6.88;;;4.60;;
38465;SDS011;24244;51.950;5.902;2023-04-28T09:06:16;6.22;;;4.22;;
38465;SDS011;24244;51.950;5.902;2023-04-28T09:08:45;7.82;;;4.32;;
38465;SDS011;24244;51.950;5.902;2023-04-28T09:11:12;6.50;;;3.90;;
38465;SDS011;24244;51.950;5.902;2023-04-28T09:13:39;6.57;;;4.22;;
38465;SDS011;24244;51.950;5.902;2023-04-28T09:16:06;7.50;;;4.75;;
38465;SDS011;24244;51.950;5.902;2023-04-28T09:18:33;6.65;;;4.00;;
38465;SDS011;24244;51.950;5.902;2023-04-28T09:21:04;6.68;;;3.78;;
38465;SDS011;24244;51.950;5.902;2023-04-28T09:23:33;8.18;;;4.38;;
38465;SDS011;24244;51.950;5.902;2023-04-28T09:26:03;5.90;;;4.18;;
38465;SDS011;24244;51.950;5.902;2023-04-28T09:28:32;5.85;;;3.33;;
38465;SDS011;24244;51.950;5.902;2023-04-28T09:31:00;6.07;;;3.85;;
38465;SDS011;24244;51.950;5.902;2023-04-28T09:33:27;7.43;;;4.30;;
38465;SDS011;24244;51.950;5.902;2023-04-28T09:35:54;7.28;;;4.25;;
38465;SDS011;24244;51.950;5.902;2023-04-28T09:38:21;6.55;;;3.90;;
38465;SDS011;24244;51.950;5.902;2023-04-28T09:40:53;5.65;;;3.50;;
38465;SDS011;24244;51.950;5.902;2023-04-28T09:43:24;7.65;;;4.10;;
38465;SDS011;24244;51.950;5.902;2023-04-28T09:45:54;6.85;;;4.07;;
38465;SDS011;24244;51.950;5.902;2023-04-28T09:48:31;6.93;;;3.90;;
38465;SDS011;24244;51.950;5.902;2023-04-28T09:50:59;6.53;;;4.15;;
38465;SDS011;24244;51.950;5.902;2023-04-28T09:53:27;6.50;;;4.00;;
38465;SDS011;24244;51.950;5.902;2023-04-28T09:55:57;6.93;;;4.55;;
38465;SDS011;24244;51.950;5.902;2023-04-28T09:58:27;7.13;;;4.00;;
38465;SDS011;24244;51.950;5.902;2023-04-28T10:00:55;7.50;;;4.40;;
38465;SDS011;24244;51.950;5.902;2023-04-28T10:03:24;5.95;;;4.15;;
38465;SDS011;24244;51.950;5.902;2023-04-28T10:05:55;6.35;;;3.90;;
38465;SDS011;24244;51.950;5.902;2023-04-28T10:08:24;6.18;;;4.10;;
38465;SDS011;24244;51.950;5.902;2023-04-28T10:10:52;5.78;;;3.95;;
38465;SDS011;24244;51.950;5.902;2023-04-28T10:13:20;8.55;;;4.50;;
38465;SDS011;24244;51.950;5.902;2023-04-28T10:15:49;7.80;;;4.10;;
38465;SDS011;24244;51.950;5.902;2023-04-28T10:18:16;6.90;;;4.28;;
38465;SDS011;24244;51.950;5.902;2023-04-28T10:20:44;5.75;;;4.28;;
38465;SDS011;24244;51.950;5.902;2023-04-28T10:26:35;5.78;;;3.58;;
38465;SDS011;24244;51.950;5.902;2023-04-28T10:29:34;7.28;;;4.20;;
38465;SDS011;24244;51.950;5.902;2023-04-28T10:32:18;6.32;;;3.83;;
38465;SDS011;24244;51.950;5.902;2023-04-28T10:34:46;6.45;;;4.10;;
38465;SDS011;24244;51.950;5.902;2023-04-28T10:37:14;6.15;;;4.15;;
38465;SDS011;24244;51.950;5.902;2023-04-28T10:39:40;8.05;;;4.57;;
38465;SDS011;24244;51.950;5.902;2023-04-28T10:42:52;5.90;;;3.90;;
38465;SDS011;24244;51.950;5.902;2023-04-28T10:51:32;5.90;;;3.92;;
38465;SDS011;24244;51.950;5.902;2023-04-28T10:59:46;6.93;;;4.45;;
38465;SDS011;24244;51.950;5.902;2023-04-28T11:05:17;6.35;;;4.20;;
38465;SDS011;24244;51.950;5.902;2023-04-28T11:13:51;5.80;;;3.80;;
38465;SDS011;24244;51.950;5.902;2023-04-28T11:16:20;5.15;;;3.45;;
38465;SDS011;24244;51.950;5.902;2023-04-28T11:18:59;4.95;;;3.58;;
38465;SDS011;24244;51.950;5.902;2023-04-28T11:21:30;5.65;;;4.07;;
38465;SDS011;24244;51.950;5.902;2023-04-28T11:23:58;5.85;;;3.88;;
38465;SDS011;24244;51.950;5.902;2023-04-28T11:26:26;6.00;;;3.63;;
38465;SDS011;24244;51.950;5.902;2023-04-28T11:28:55;5.05;;;3.22;;
38465;SDS011;24244;51.950;5.902;2023-04-28T11:31:24;4.90;;;3.47;;
38465;SDS011;24244;51.950;5.902;2023-04-28T11:33:52;5.82;;;3.58;;
38465;SDS011;24244;51.950;5.902;2023-04-28T11:36:24;7.07;;;3.50;;
38465;SDS011;24244;51.950;5.902;2023-04-28T11:38:52;5.95;;;3.83;;
38465;SDS011;24244;51.950;5.902;2023-04-28T11:41:19;5.22;;;3.33;;
38465;SDS011;24244;51.950;5.902;2023-04-28T11:43:47;5.10;;;3.10;;
38465;SDS011;24244;51.950;5.902;2023-04-28T11:46:15;5.35;;;3.40;;
38465;SDS011;24244;51.950;5.902;2023-04-28T11:48:43;6.50;;;4.15;;
38465;SDS011;24244;51.950;5.902;2023-04-28T11:54:12;7.00;;;4.18;;
38465;SDS011;24244;51.950;5.902;2023-04-28T11:56:40;6.38;;;3.83;;
38465;SDS011;24244;51.950;5.902;2023-04-28T11:59:09;7.47;;;4.72;;
38465;SDS011;24244;51.950;5.902;2023-04-28T12:01:44;6.63;;;4.43;;
38465;SDS011;24244;51.950;5.902;2023-04-28T12:04:12;8.90;;;5.25;;
38465;SDS011;24244;51.950;5.902;2023-04-28T12:06:39;7.25;;;4.47;;
38465;SDS011;24244;51.950;5.902;2023-04-28T12:09:16;8.45;;;5.25;;
38465;SDS011;24244;51.950;5.902;2023-04-28T12:11:53;7.05;;;4.22;;
38465;SDS011;24244;51.950;5.902;2023-04-28T12:14:22;8.23;;;4.82;;
38465;SDS011;24244;51.950;5.902;2023-04-28T12:16:50;9.23;;;4.75;;
38465;SDS011;24244;51.950;5.902;2023-04-28T12:19:17;7.90;;;4.78;;
38465;SDS011;24244;51.950;5.902;2023-04-28T12:21:59;8.60;;;4.45;;
38465;SDS011;24244;51.950;5.902;2023-04-28T12:24:27;7.82;;;4.55;;
38465;SDS011;24244;51.950;5.902;2023-04-28T12:29:42;7.57;;;4.60;;
38465;SDS011;24244;51.950;5.902;2023-04-28T12:32:13;7.20;;;4.45;;
38465;SDS011;24244;51.950;5.902;2023-04-28T12:34:40;7.47;;;4.97;;
38465;SDS011;24244;51.950;5.902;2023-04-28T12:37:08;9.93;;;4.55;;
38465;SDS011;24244;51.950;5.902;2023-04-28T12:39:35;7.90;;;4.40;;
38465;SDS011;24244;51.950;5.902;2023-04-28T12:42:05;7.35;;;3.67;;
38465;SDS011;24244;51.950;5.902;2023-04-28T12:44:33;9.35;;;4.22;;
38465;SDS011;24244;51.950;5.902;2023-04-28T12:47:03;7.38;;;4.30;;
38465;SDS011;24244;51.950;5.902;2023-04-28T12:49:31;7.63;;;4.20;;
38465;SDS011;24244;51.950;5.902;2023-04-28T12:51:59;6.72;;;4.00;;
38465;SDS011;24244;51.950;5.902;2023-04-28T12:54:26;6.65;;;3.85;;
38465;SDS011;24244;51.950;5.902;2023-04-28T12:56:53;7.85;;;4.43;;
38465;SDS011;24244;51.950;5.902;2023-04-28T12:59:20;6.15;;;3.70;;
38465;SDS011;24244;51.950;5.902;2023-04-28T13:01:46;5.90;;;3.55;;
38465;SDS011;24244;51.950;5.902;2023-04-28T13:04:16;6.70;;;3.42;;
38465;SDS011;24244;51.950;5.902;2023-04-28T13:06:44;6.20;;;3.55;;
38465;SDS011;24244;51.950;5.902;2023-04-28T13:09:13;6.13;;;3.35;;
38465;SDS011;24244;51.950;5.902;2023-04-28T13:11:41;5.15;;;3.17;;
38465;SDS011;24244;51.950;5.902;2023-04-28T13:14:08;5.75;;;3.42;;
38465;SDS011;24244;51.950;5.902;2023-04-28T13:16:35;5.60;;;3.15;;
38465;SDS011;24244;51.950;5.902;2023-04-28T13:19:02;5.55;;;3.20;;
38465;SDS011;24244;51.950;5.902;2023-04-28T13:21:35;4.53;;;2.60;;
38465;SDS011;24244;51.950;5.902;2023-04-28T13:24:04;5.07;;;3.03;;
38465;SDS011;24244;51.950;5.902;2023-04-28T13:26:32;6.80;;;2.97;;
38465;SDS011;24244;51.950;5.902;2023-04-28T13:28:58;3.40;;;1.70;;
38465;SDS011;24244;51.950;5.902;2023-04-28T13:31:26;5.35;;;2.42;;
38465;SDS011;24244;51.950;5.902;2023-04-28T13:33:53;4.07;;;2.30;;
38465;SDS011;24244;51.950;5.902;2023-04-28T13:36:20;4.88;;;2.38;;
38465;SDS011;24244;51.950;5.902;2023-04-28T13:38:49;4.55;;;2.53;;
38465;SDS011;24244;51.950;5.902;2023-04-28T13:41:16;5.57;;;2.80;;
38465;SDS011;24244;51.950;5.902;2023-04-28T13:43:43;5.50;;;2.90;;
38465;SDS011;24244;51.950;5.902;2023-04-28T13:46:10;4.45;;;2.80;;
38465;SDS011;24244;51.950;5.902;2023-04-28T13:48:37;5.10;;;2.85;;
38465;SDS011;24244;51.950;5.902;2023-04-28T13:51:05;4.70;;;2.50;;
38465;SDS011;24244;51.950;5.902;2023-04-28T13:53:33;5.35;;;3.00;;
38465;SDS011;24244;51.950;5.902;2023-04-28T13:56:05;6.05;;;3.20;;
38465;SDS011;24244;51.950;5.902;2023-04-28T13:58:33;5.30;;;3.00;;
38465;SDS011;24244;51.950;5.902;2023-04-28T14:01:00;5.20;;;2.88;;
38465;SDS011;24244;51.950;5.902;2023-04-28T14:03:29;5.30;;;3.35;;
38465;SDS011;24244;51.950;5.902;2023-04-28T14:05:56;4.90;;;2.83;;
38465;SDS011;24244;51.950;5.902;2023-04-28T14:08:23;4.65;;;2.65;;
38465;SDS011;24244;51.950;5.902;2023-04-28T14:10:53;4.50;;;2.92;;
38465;SDS011;24244;51.950;5.902;2023-04-28T14:13:21;6.50;;;3.13;;
38465;SDS011;24244;51.950;5.902;2023-04-28T14:15:50;4.78;;;3.17;;
38465;SDS011;24244;51.950;5.902;2023-04-28T14:18:24;5.13;;;2.90;;
38465;SDS011;24244;51.950;5.902;2023-04-28T14:20:51;4.53;;;2.42;;
38465;SDS011;24244;51.950;5.902;2023-04-28T14:23:19;4.53;;;2.53;;
38465;SDS011;24244;51.950;5.902;2023-04-28T14:25:47;3.88;;;2.38;;
38465;SDS011;24244;51.950;5.902;2023-04-28T14:28:14;4.03;;;2.25;;
38465;SDS011;24244;51.950;5.902;2023-04-28T14:30:42;3.70;;;2.10;;
38465;SDS011;24244;51.950;5.902;2023-04-28T14:33:09;4.05;;;2.40;;
38465;SDS011;24244;51.950;5.902;2023-04-28T14:35:36;3.90;;;2.15;;
38465;SDS011;24244;51.950;5.902;2023-04-28T14:38:06;3.75;;;1.70;;
38465;SDS011;24244;51.950;5.902;2023-04-28T14:40:33;2.97;;;1.42;;
38465;SDS011;24244;51.950;5.902;2023-04-28T14:43:00;3.47;;;1.50;;
38465;SDS011;24244;51.950;5.902;2023-04-28T14:45:26;3.58;;;1.23;;
38465;SDS011;24244;51.950;5.902;2023-04-28T14:47:55;2.22;;;0.95;;
38465;SDS011;24244;51.950;5.902;2023-04-28T14:50:22;2.17;;;1.15;;
38465;SDS011;24244;51.950;5.902;2023-04-28T14:52:49;2.75;;;1.30;;
38465;SDS011;24244;51.950;5.902;2023-04-28T14:55:16;3.65;;;1.52;;
38465;SDS011;24244;51.950;5.902;2023-04-28T14:57:42;2.90;;;1.10;;
38465;SDS011;24244;51.950;5.902;2023-04-28T15:00:10;2.40;;;1.10;;
38465;SDS011;24244;51.950;5.902;2023-04-28T15:02:37;2.95;;;1.55;;
38465;SDS011;24244;51.950;5.902;2023-04-28T15:05:07;2.28;;;1.20;;
38465;SDS011;24244;51.950;5.902;2023-04-28T15:07:35;2.42;;;1.17;;
38465;SDS011;24244;51.950;5.902;2023-04-28T15:10:02;3.53;;;1.75;;
38465;SDS011;24244;51.950;5.902;2023-04-28T15:12:29;3.13;;;1.40;;
38465;SDS011;24244;51.950;5.902;2023-04-28T15:14:57;1.92;;;1.00;;
38465;SDS011;24244;51.950;5.902;2023-04-28T15:17:24;2.75;;;1.40;;
38465;SDS011;24244;51.950;5.902;2023-04-28T15:19:52;3.00;;;1.52;;
38465;SDS011;24244;51.950;5.902;2023-04-28T15:22:20;2.67;;;1.33;;
38465;SDS011;24244;51.950;5.902;2023-04-28T15:24:47;2.90;;;1.63;;